NCR9501 KMCO-KMIA
Flight info
| Callsign | NCR9501 |
|---|---|
| Flight time | 0h 44m |
| Altitude | 23000 |
| Route | DDANY3 DDANY CSTAL3 |
| Aircraft | B77L/H-SDE1E2E3FGHIJ2J3J4J5M1RWXYZ/LB1D1 |
Departure
| Time | 2026-04-23 16:11 |
|---|---|
| Airport | Orlando International Airport (KMCO) |
Arrival
| Time | 2026-04-23 16:56 |
|---|---|
| Airport | Miami International Airport (KMIA) |
| Time | Latitude | Longitude | Altitude | Speed | Heading |
|---|---|---|---|---|---|
| 2026-04-23 15:35 | 28.42843 | -81.33128 | 102 ft | 0 kts | 270° |
| 2026-04-23 15:54 | 28.42843 | -81.33118 | 102 ft | 2 kts | 270° |
| 2026-04-23 15:54 | 28.42843 | -81.33101 | 102 ft | 2 kts | 270° |
| 2026-04-23 15:54 | 28.42843 | -81.33084 | 102 ft | 2 kts | 272° |
| 2026-04-23 15:55 | 28.42837 | -81.33070 | 102 ft | 2 kts | 330° |
| 2026-04-23 15:55 | 28.42828 | -81.33066 | 102 ft | 1 kts | 1° |
| 2026-04-23 15:55 | 28.42824 | -81.33067 | 102 ft | 0 kts | 359° |
| 2026-04-23 16:00 | 28.42831 | -81.33067 | 102 ft | 3 kts | 360° |
| 2026-04-23 16:00 | 28.42859 | -81.33067 | 102 ft | 4 kts | 360° |
| 2026-04-23 16:01 | 28.42874 | -81.33067 | 102 ft | 0 kts | 360° |
| 2026-04-23 16:02 | 28.42881 | -81.33067 | 102 ft | 3 kts | 360° |
| 2026-04-23 16:02 | 28.42917 | -81.33067 | 102 ft | 6 kts | 0° |
| 2026-04-23 16:03 | 28.42970 | -81.33061 | 102 ft | 8 kts | 16° |
| 2026-04-23 16:03 | 28.43005 | -81.33006 | 102 ft | 9 kts | 79° |
| 2026-04-23 16:03 | 28.43035 | -81.32939 | 102 ft | 9 kts | 32° |
| 2026-04-23 16:03 | 28.43111 | -81.32926 | 102 ft | 12 kts | 2° |
| 2026-04-23 16:04 | 28.43197 | -81.32925 | 102 ft | 12 kts | 359° |
| 2026-04-23 16:04 | 28.43286 | -81.32927 | 103 ft | 12 kts | 359° |
| 2026-04-23 16:04 | 28.43377 | -81.32928 | 103 ft | 13 kts | 359° |
| 2026-04-23 16:04 | 28.43474 | -81.32930 | 102 ft | 14 kts | 359° |
| 2026-04-23 16:05 | 28.43541 | -81.32931 | 102 ft | 14 kts | 359° |
| 2026-04-23 16:05 | 28.43637 | -81.32925 | 101 ft | 8 kts | 20° |
| 2026-04-23 16:05 | 28.43667 | -81.32864 | 101 ft | 9 kts | 86° |
| 2026-04-23 16:05 | 28.43670 | -81.32789 | 102 ft | 9 kts | 88° |
| 2026-04-23 16:06 | 28.43673 | -81.32708 | 101 ft | 10 kts | 82° |
| 2026-04-23 16:06 | 28.43702 | -81.32625 | 101 ft | 11 kts | 61° |
| 2026-04-23 16:06 | 28.43747 | -81.32539 | 100 ft | 12 kts | 59° |
| 2026-04-23 16:06 | 28.43793 | -81.32451 | 100 ft | 13 kts | 60° |
| 2026-04-23 16:07 | 28.43839 | -81.32366 | 102 ft | 12 kts | 58° |
| 2026-04-23 16:07 | 28.43887 | -81.32278 | 103 ft | 15 kts | 59° |
| 2026-04-23 16:07 | 28.43947 | -81.32165 | 103 ft | 16 kts | 59° |
| 2026-04-23 16:07 | 28.43984 | -81.32059 | 103 ft | 12 kts | 81° |
| 2026-04-23 16:08 | 28.44028 | -81.32008 | 102 ft | 10 kts | 6° |
| 2026-04-23 16:08 | 28.44111 | -81.32005 | 103 ft | 13 kts | 360° |
| 2026-04-23 16:08 | 28.44203 | -81.32006 | 103 ft | 13 kts | 359° |
| 2026-04-23 16:08 | 28.44298 | -81.32008 | 104 ft | 13 kts | 359° |
| 2026-04-23 16:09 | 28.44394 | -81.32009 | 104 ft | 13 kts | 359° |
| 2026-04-23 16:09 | 28.44493 | -81.32010 | 104 ft | 14 kts | 359° |
| 2026-04-23 16:09 | 28.44594 | -81.32011 | 104 ft | 14 kts | 360° |
| 2026-04-23 16:09 | 28.44699 | -81.32011 | 104 ft | 15 kts | 0° |
| 2026-04-23 16:10 | 28.44798 | -81.32027 | 103 ft | 13 kts | 324° |
| 2026-04-23 16:10 | 28.44823 | -81.32117 | 102 ft | 12 kts | 270° |
| 2026-04-23 16:10 | 28.44819 | -81.32201 | 102 ft | 8 kts | 253° |
| 2026-04-23 16:10 | 28.44767 | -81.32229 | 102 ft | 10 kts | 179° |
| 2026-04-23 16:11 | 28.44589 | -81.32226 | 103 ft | 54 kts | 179° |
| 2026-04-23 16:11 | 28.43915 | -81.32218 | 103 ft | 134 kts | 179° |
| 2026-04-23 16:11 | 28.42799 | -81.32223 | 331 ft | 175 kts | 180° |
| 2026-04-23 16:11 | 28.41619 | -81.32232 | 1178 ft | 174 kts | 175° |
| 2026-04-23 16:12 | 28.40383 | -81.32185 | 1918 ft | 187 kts | 171° |
| 2026-04-23 16:12 | 28.39145 | -81.31688 | 2617 ft | 199 kts | 143° |
| 2026-04-23 16:12 | 28.38091 | -81.30603 | 3423 ft | 213 kts | 133° |
| 2026-04-23 16:12 | 28.37021 | -81.29333 | 4088 ft | 237 kts | 132° |
| 2026-04-23 16:13 | 28.35875 | -81.27942 | 4932 ft | 251 kts | 129° |
| 2026-04-23 16:13 | 28.34471 | -81.24277 | 6757 ft | 271 kts | 104° |
| 2026-04-23 16:13 | 28.33997 | -81.22228 | 7900 ft | 271 kts | 104° |
| 2026-04-23 16:14 | 28.33516 | -81.20151 | 8864 ft | 277 kts | 104° |
| 2026-04-23 16:14 | 28.33030 | -81.18050 | 9788 ft | 283 kts | 104° |
| 2026-04-23 16:14 | 28.32520 | -81.15849 | 10519 ft | 297 kts | 104° |
| 2026-04-23 16:14 | 28.31982 | -81.13528 | 11167 ft | 314 kts | 104° |
| 2026-04-23 16:15 | 28.31424 | -81.11126 | 12077 ft | 323 kts | 104° |
| 2026-04-23 16:15 | 28.30850 | -81.08657 | 13061 ft | 332 kts | 104° |
| 2026-04-23 16:15 | 28.30252 | -81.06083 | 13797 ft | 339 kts | 104° |
| 2026-04-23 16:15 | 28.29648 | -81.03491 | 13971 ft | 343 kts | 104° |
| 2026-04-23 16:16 | 28.29042 | -81.00894 | 13975 ft | 341 kts | 104° |
| 2026-04-23 16:16 | 28.28430 | -80.98271 | 13980 ft | 352 kts | 104° |
| 2026-04-23 16:16 | 28.27797 | -80.95559 | 15011 ft | 362 kts | 104° |
| 2026-04-23 16:16 | 28.27171 | -80.92882 | 16520 ft | 357 kts | 104° |
| 2026-04-23 16:17 | 28.26533 | -80.90157 | 17753 ft | 362 kts | 104° |
| 2026-04-23 16:17 | 28.25885 | -80.87389 | 18701 ft | 374 kts | 104° |
| 2026-04-23 16:17 | 28.25216 | -80.84534 | 19742 ft | 383 kts | 104° |
| 2026-04-23 16:17 | 28.24524 | -80.81588 | 20816 ft | 390 kts | 104° |
| 2026-04-23 16:18 | 28.23824 | -80.78609 | 21934 ft | 395 kts | 105° |
| 2026-04-23 16:18 | 28.23105 | -80.75608 | 22795 ft | 405 kts | 108° |
| 2026-04-23 16:18 | 28.22049 | -80.72644 | 23138 ft | 408 kts | 118° |
| 2026-04-23 16:18 | 28.20540 | -80.69919 | 23155 ft | 406 kts | 130° |
| 2026-04-23 16:19 | 28.18658 | -80.67598 | 23166 ft | 400 kts | 141° |
| 2026-04-23 16:19 | 28.16442 | -80.65700 | 23167 ft | 396 kts | 152° |
| 2026-04-23 16:19 | 28.14009 | -80.64307 | 23157 ft | 389 kts | 162° |
| 2026-04-23 16:19 | 28.11436 | -80.63436 | 23144 ft | 384 kts | 173° |
| 2026-04-23 16:20 | 28.08815 | -80.62893 | 23160 ft | 384 kts | 174° |
| 2026-04-23 16:20 | 28.06200 | -80.62312 | 23163 ft | 384 kts | 173° |
| 2026-04-23 16:20 | 28.03568 | -80.61666 | 23162 ft | 384 kts | 172° |
| 2026-04-23 16:20 | 28.00976 | -80.60988 | 23176 ft | 384 kts | 171° |
| 2026-04-23 16:21 | 27.98362 | -80.60274 | 23159 ft | 385 kts | 171° |
| 2026-04-23 16:21 | 27.95757 | -80.59541 | 23166 ft | 385 kts | 170° |
| 2026-04-23 16:21 | 27.93146 | -80.58792 | 23152 ft | 386 kts | 170° |
| 2026-04-23 16:21 | 27.90568 | -80.58043 | 23166 ft | 385 kts | 170° |
| 2026-04-23 16:22 | 27.87959 | -80.57278 | 23171 ft | 387 kts | 169° |
| 2026-04-23 16:22 | 27.85346 | -80.56509 | 23167 ft | 387 kts | 169° |
| 2026-04-23 16:22 | 27.82717 | -80.55731 | 23169 ft | 386 kts | 169° |
| 2026-04-23 16:22 | 27.80110 | -80.54958 | 23176 ft | 386 kts | 169° |
| 2026-04-23 16:23 | 27.77502 | -80.54184 | 23182 ft | 393 kts | 169° |
| 2026-04-23 16:23 | 27.74787 | -80.53381 | 23173 ft | 409 kts | 169° |
| 2026-04-23 16:23 | 27.72021 | -80.52558 | 23172 ft | 412 kts | 169° |
| 2026-04-23 16:23 | 27.69250 | -80.51733 | 23171 ft | 412 kts | 169° |
| 2026-04-23 16:24 | 27.66459 | -80.50902 | 23178 ft | 412 kts | 169° |
| 2026-04-23 16:24 | 27.63696 | -80.49998 | 23174 ft | 413 kts | 165° |
| 2026-04-23 16:24 | 27.60995 | -80.48905 | 23171 ft | 414 kts | 163° |
| 2026-04-23 16:24 | 27.58302 | -80.47806 | 23175 ft | 414 kts | 163° |
| 2026-04-23 16:25 | 27.55588 | -80.46706 | 23176 ft | 414 kts | 164° |
| 2026-04-23 16:25 | 27.52865 | -80.45612 | 23172 ft | 413 kts | 164° |
| 2026-04-23 16:25 | 27.50158 | -80.44528 | 23173 ft | 413 kts | 164° |
| 2026-04-23 16:25 | 27.47455 | -80.43449 | 23173 ft | 413 kts | 164° |
| 2026-04-23 16:26 | 27.44749 | -80.42374 | 23167 ft | 413 kts | 164° |
| 2026-04-23 16:26 | 27.42054 | -80.41304 | 23170 ft | 412 kts | 164° |
| 2026-04-23 16:26 | 27.39338 | -80.40228 | 23168 ft | 412 kts | 164° |
| 2026-04-23 16:26 | 27.36622 | -80.39153 | 23162 ft | 412 kts | 164° |
| 2026-04-23 16:27 | 27.33919 | -80.38084 | 23169 ft | 412 kts | 164° |
| 2026-04-23 16:27 | 27.31202 | -80.37011 | 23163 ft | 411 kts | 164° |
| 2026-04-23 16:27 | 27.28521 | -80.35953 | 23161 ft | 412 kts | 164° |
| 2026-04-23 16:27 | 27.25816 | -80.34887 | 23155 ft | 411 kts | 165° |
| 2026-04-23 16:28 | 27.23104 | -80.33818 | 23155 ft | 411 kts | 165° |
| 2026-04-23 16:28 | 27.20395 | -80.32752 | 23151 ft | 411 kts | 165° |
| 2026-04-23 16:28 | 27.17691 | -80.31699 | 23157 ft | 411 kts | 165° |
| 2026-04-23 16:28 | 27.15008 | -80.30657 | 23153 ft | 411 kts | 165° |
| 2026-04-23 16:29 | 27.12274 | -80.29597 | 23144 ft | 411 kts | 165° |
| 2026-04-23 16:29 | 27.09604 | -80.28560 | 23152 ft | 410 kts | 165° |
| 2026-04-23 16:29 | 27.06892 | -80.27509 | 23151 ft | 410 kts | 165° |
| 2026-04-23 16:29 | 27.04398 | -80.26541 | 23157 ft | 410 kts | 165° |
| 2026-04-23 16:30 | 27.02152 | -80.25671 | 23140 ft | 409 kts | 165° |
| 2026-04-23 16:30 | 26.99436 | -80.24618 | 23150 ft | 410 kts | 165° |
| 2026-04-23 16:30 | 26.96746 | -80.23577 | 23147 ft | 411 kts | 165° |
| 2026-04-23 16:30 | 26.94037 | -80.22528 | 23132 ft | 409 kts | 165° |
| 2026-04-23 16:31 | 26.91355 | -80.21491 | 23143 ft | 410 kts | 165° |
| 2026-04-23 16:31 | 26.88680 | -80.20455 | 22988 ft | 403 kts | 165° |
| 2026-04-23 16:31 | 26.86023 | -80.19427 | 22540 ft | 399 kts | 165° |
| 2026-04-23 16:31 | 26.83411 | -80.18448 | 22033 ft | 396 kts | 165° |
| 2026-04-23 16:32 | 26.80784 | -80.17477 | 21523 ft | 393 kts | 165° |
| 2026-04-23 16:32 | 26.78216 | -80.16528 | 21031 ft | 390 kts | 165° |
| 2026-04-23 16:32 | 26.75621 | -80.15568 | 20516 ft | 388 kts | 165° |
| 2026-04-23 16:32 | 26.73080 | -80.14627 | 19998 ft | 386 kts | 165° |
| 2026-04-23 16:33 | 26.70548 | -80.13693 | 19484 ft | 383 kts | 166° |
| 2026-04-23 16:33 | 26.67992 | -80.12952 | 18980 ft | 379 kts | 170° |
| 2026-04-23 16:33 | 26.65413 | -80.12285 | 18464 ft | 376 kts | 170° |
| 2026-04-23 16:33 | 26.62894 | -80.11627 | 17955 ft | 375 kts | 170° |
| 2026-04-23 16:34 | 26.60351 | -80.10955 | 17432 ft | 373 kts | 170° |
| 2026-04-23 16:34 | 26.57816 | -80.10307 | 16841 ft | 372 kts | 171° |
| 2026-04-23 16:34 | 26.55298 | -80.09691 | 16287 ft | 371 kts | 170° |
| 2026-04-23 16:34 | 26.52770 | -80.09070 | 15768 ft | 369 kts | 170° |
| 2026-04-23 16:35 | 26.50271 | -80.08453 | 15249 ft | 366 kts | 170° |
| 2026-04-23 16:35 | 26.47805 | -80.07841 | 14737 ft | 364 kts | 170° |
| 2026-04-23 16:35 | 26.45325 | -80.07229 | 14230 ft | 361 kts | 170° |
| 2026-04-23 16:35 | 26.42884 | -80.06705 | 13719 ft | 358 kts | 172° |
| 2026-04-23 16:36 | 26.40427 | -80.06198 | 13209 ft | 356 kts | 171° |
| 2026-04-23 16:36 | 26.38013 | -80.05658 | 12794 ft | 351 kts | 168° |
| 2026-04-23 16:36 | 26.35690 | -80.05010 | 12714 ft | 336 kts | 167° |
| 2026-04-23 16:36 | 26.33463 | -80.04382 | 12624 ft | 322 kts | 168° |
| 2026-04-23 16:37 | 26.31302 | -80.03779 | 12511 ft | 315 kts | 168° |
| 2026-04-23 16:37 | 26.29195 | -80.03198 | 12381 ft | 311 kts | 168° |
| 2026-04-23 16:37 | 26.27074 | -80.02618 | 12252 ft | 310 kts | 168° |
| 2026-04-23 16:37 | 26.24970 | -80.02406 | 12116 ft | 306 kts | 187° |
| 2026-04-23 16:38 | 26.22850 | -80.02759 | 11995 ft | 306 kts | 193° |
| 2026-04-23 16:38 | 26.20760 | -80.03230 | 11869 ft | 304 kts | 194° |
| 2026-04-23 16:38 | 26.18685 | -80.03710 | 11745 ft | 304 kts | 194° |
| 2026-04-23 16:38 | 26.16630 | -80.04183 | 11615 ft | 303 kts | 194° |
| 2026-04-23 16:39 | 26.14551 | -80.04659 | 11487 ft | 303 kts | 194° |
| 2026-04-23 16:39 | 26.12471 | -80.05135 | 11358 ft | 302 kts | 194° |
| 2026-04-23 16:39 | 26.10422 | -80.05603 | 11233 ft | 301 kts | 193° |
| 2026-04-23 16:39 | 26.08360 | -80.06074 | 11106 ft | 301 kts | 193° |
| 2026-04-23 16:40 | 26.06295 | -80.06548 | 10978 ft | 301 kts | 194° |
| 2026-04-23 16:40 | 26.04276 | -80.07070 | 10798 ft | 301 kts | 195° |
| 2026-04-23 16:40 | 26.02240 | -80.07611 | 10604 ft | 300 kts | 195° |
| 2026-04-23 16:40 | 26.00197 | -80.08148 | 10414 ft | 299 kts | 195° |
| 2026-04-23 16:41 | 25.98170 | -80.08677 | 10222 ft | 298 kts | 195° |
| 2026-04-23 16:41 | 25.96158 | -80.09199 | 10039 ft | 291 kts | 194° |
| 2026-04-23 16:41 | 25.94209 | -80.09705 | 9827 ft | 288 kts | 195° |
| 2026-04-23 16:41 | 25.92262 | -80.10294 | 9586 ft | 285 kts | 203° |
| 2026-04-23 16:42 | 25.90503 | -80.11213 | 9413 ft | 282 kts | 209° |
| 2026-04-23 16:42 | 25.88744 | -80.12236 | 9276 ft | 282 kts | 209° |
| 2026-04-23 16:42 | 25.87009 | -80.13248 | 9162 ft | 282 kts | 209° |
| 2026-04-23 16:42 | 25.85276 | -80.14253 | 9019 ft | 281 kts | 208° |
| 2026-04-23 16:43 | 25.83538 | -80.15257 | 8883 ft | 280 kts | 208° |
| 2026-04-23 16:43 | 25.81812 | -80.16254 | 8745 ft | 280 kts | 208° |
| 2026-04-23 16:43 | 25.80062 | -80.17265 | 8601 ft | 279 kts | 208° |
| 2026-04-23 16:43 | 25.78328 | -80.18265 | 8456 ft | 279 kts | 208° |
| 2026-04-23 16:44 | 25.76617 | -80.19252 | 8317 ft | 279 kts | 208° |
| 2026-04-23 16:44 | 25.74885 | -80.20251 | 8171 ft | 278 kts | 208° |
| 2026-04-23 16:44 | 25.73306 | -80.21436 | 8045 ft | 277 kts | 228° |
| 2026-04-23 16:44 | 25.72302 | -80.23246 | 7799 ft | 280 kts | 250° |
| 2026-04-23 16:45 | 25.71722 | -80.25371 | 7059 ft | 294 kts | 257° |
| 2026-04-23 16:45 | 25.71292 | -80.27602 | 6648 ft | 293 kts | 263° |
| 2026-04-23 16:45 | 25.71137 | -80.29769 | 6615 ft | 278 kts | 267° |
| 2026-04-23 16:45 | 25.71046 | -80.31889 | 6429 ft | 271 kts | 268° |
| 2026-04-23 16:46 | 25.70955 | -80.33972 | 6068 ft | 273 kts | 267° |
| 2026-04-23 16:46 | 25.70859 | -80.36057 | 5748 ft | 272 kts | 267° |
| 2026-04-23 16:46 | 25.70760 | -80.38152 | 5437 ft | 272 kts | 267° |
| 2026-04-23 16:46 | 25.70659 | -80.40255 | 5118 ft | 272 kts | 267° |
| 2026-04-23 16:47 | 25.70559 | -80.42351 | 4804 ft | 271 kts | 267° |
| 2026-04-23 16:47 | 25.70455 | -80.44425 | 4443 ft | 272 kts | 265° |
| 2026-04-23 16:47 | 25.70282 | -80.46506 | 4155 ft | 270 kts | 264° |
| 2026-04-23 16:47 | 25.70100 | -80.48572 | 4007 ft | 263 kts | 264° |
| 2026-04-23 16:48 | 25.69933 | -80.50542 | 3991 ft | 253 kts | 264° |
| 2026-04-23 16:48 | 25.69959 | -80.52447 | 3984 ft | 249 kts | 286° |
| 2026-04-23 16:48 | 25.70767 | -80.54089 | 3979 ft | 240 kts | 318° |
| 2026-04-23 16:48 | 25.72169 | -80.54998 | 3984 ft | 231 kts | 348° |
| 2026-04-23 16:49 | 25.73207 | -80.55256 | 3982 ft | 229 kts | 352° |
| 2026-04-23 16:49 | 25.75302 | -80.55359 | 3878 ft | 224 kts | 20° |
| 2026-04-23 16:49 | 25.76592 | -80.54473 | 3616 ft | 218 kts | 52° |
| 2026-04-23 16:49 | 25.77403 | -80.53078 | 3385 ft | 211 kts | 69° |
| 2026-04-23 16:50 | 25.77766 | -80.51547 | 3143 ft | 205 kts | 83° |
| 2026-04-23 16:50 | 25.77892 | -80.49987 | 2903 ft | 201 kts | 88° |
| 2026-04-23 16:50 | 25.77941 | -80.48438 | 2667 ft | 198 kts | 89° |
| 2026-04-23 16:50 | 25.77985 | -80.46954 | 2519 ft | 190 kts | 89° |
| 2026-04-23 16:51 | 25.78040 | -80.45512 | 2390 ft | 182 kts | 88° |
| 2026-04-23 16:51 | 25.78094 | -80.44128 | 2217 ft | 172 kts | 88° |
| 2026-04-23 16:51 | 25.78142 | -80.42884 | 2008 ft | 153 kts | 88° |
| 2026-04-23 16:51 | 25.78186 | -80.41758 | 1833 ft | 140 kts | 88° |
| 2026-04-23 16:52 | 25.78228 | -80.40714 | 1669 ft | 131 kts | 89° |
| 2026-04-23 16:52 | 25.78269 | -80.39712 | 1502 ft | 131 kts | 88° |
| 2026-04-23 16:52 | 25.78312 | -80.38699 | 1339 ft | 131 kts | 88° |
| 2026-04-23 16:52 | 25.78354 | -80.37695 | 1169 ft | 131 kts | 88° |
| 2026-04-23 16:53 | 25.78397 | -80.36671 | 995 ft | 132 kts | 89° |
| 2026-04-23 16:53 | 25.78442 | -80.35664 | 845 ft | 133 kts | 88° |
| 2026-04-23 16:53 | 25.78453 | -80.35483 | 818 ft | 133 kts | 88° |
| 2026-04-23 16:54 | 25.78465 | -80.35268 | 786 ft | 133 kts | 88° |
| 2026-04-23 16:54 | 25.78508 | -80.34245 | 628 ft | 133 kts | 90° |
| 2026-04-23 16:54 | 25.78541 | -80.33220 | 436 ft | 133 kts | 88° |
| 2026-04-23 16:55 | 25.78588 | -80.32177 | 248 ft | 134 kts | 89° |
| 2026-04-23 16:55 | 25.78630 | -80.31143 | 63 ft | 134 kts | 89° |
| 2026-04-23 16:55 | 25.78664 | -80.30193 | 20 ft | 106 kts | 88° |
| 2026-04-23 16:55 | 25.78692 | -80.29547 | 20 ft | 61 kts | 88° |
| 2026-04-23 16:56 | 25.78707 | -80.29170 | 20 ft | 42 kts | 88° |
| 2026-04-23 16:56 | 25.78731 | -80.28863 | 20 ft | 34 kts | 80° |
| 2026-04-23 16:56 | 25.78778 | -80.28730 | 20 ft | 15 kts | 53° |
| 2026-04-23 16:56 | 25.78848 | -80.28677 | 20 ft | 8 kts | 11° |
| 2026-04-23 16:57 | 25.78911 | -80.28681 | 20 ft | 9 kts | 346° |
| 2026-04-23 16:57 | 25.78945 | -80.28740 | 20 ft | 10 kts | 275° |
| 2026-04-23 16:57 | 25.78948 | -80.28823 | 20 ft | 8 kts | 273° |
| 2026-04-23 16:57 | 25.78974 | -80.28866 | 20 ft | 7 kts | 338° |
| 2026-04-23 16:58 | 25.79029 | -80.28885 | 20 ft | 8 kts | 342° |
| 2026-04-23 16:58 | 25.79083 | -80.28925 | 20 ft | 10 kts | 301° |
| 2026-04-23 16:58 | 25.79092 | -80.28944 | 20 ft | 0 kts | 300° |
| 2026-04-23 17:02 | 25.79093 | -80.28944 | 20 ft | 0 kts | 300° |
| 2026-04-23 17:02 | 25.79104 | -80.28966 | 20 ft | 6 kts | 300° |
| 2026-04-23 17:02 | 25.79128 | -80.29012 | 20 ft | 1 kts | 300° |
| 2026-04-23 17:03 | 25.79129 | -80.29014 | 20 ft | 2 kts | 300° |
| 2026-04-23 17:03 | 25.79146 | -80.29050 | 20 ft | 3 kts | 290° |
| 2026-04-23 17:04 | 25.79140 | -80.29078 | 20 ft | 4 kts | 224° |
| 2026-04-23 17:04 | 25.79114 | -80.29098 | 20 ft | 6 kts | 213° |
| 2026-04-23 17:04 | 25.79098 | -80.29109 | 20 ft | 0 kts | 211° |